Time;durP1;ratioP1;P1;durP2;ratioP2;P2;SDS_P1;SDS_P2;PMS_P1;PMS_P2;Temp;Humidity;BMP_temperature;BMP_pressure;BME280_temperature;BME280_humidity;BME280_pressure;Samples;Min_cycle;Max_cycle;Signal;HPM_P1;HPM_P2
2023/12/03 00:01:43;;;;;;;53.75;29.00;;;;;;;7.71;96.30;98844.56;5134216;27;20089;-40
2023/12/03 00:04:08;;;;;;;48.17;28.35;;;;;;;7.73;95.05;98850.47;5134226;27;20354;-39
2023/12/03 00:06:34;;;;;;;58.15;30.70;;;;;;;7.77;96.84;98875.53;5134439;27;20015;-38
2023/12/03 00:08:59;;;;;;;49.13;28.92;;;;;;;7.82;95.99;98867.78;5134268;27;20023;-37
2023/12/03 00:11:25;;;;;;;50.30;28.48;;;;;;;7.70;95.74;98856.16;5125680;27;20455;-39
2023/12/03 00:13:51;;;;;;;49.85;30.42;;;;;;;7.90;96.33;98869.38;5113271;28;20031;-39
2023/12/03 00:16:16;;;;;;;51.47;30.45;;;;;;;7.94;95.42;98869.75;5113523;28;20027;-39
2023/12/03 00:18:41;;;;;;;52.45;29.67;;;;;;;7.73;95.02;98847.81;5113282;28;20091;-39
2023/12/03 00:21:07;;;;;;;50.38;28.90;;;;;;;7.51;95.73;98859.66;5116805;27;20038;-38
2023/12/03 00:23:32;;;;;;;50.13;29.58;;;;;;;7.44;97.05;98857.84;5133846;27;20023;-38
2023/12/03 00:25:58;;;;;;;52.42;29.70;;;;;;;7.47;97.14;98863.75;5133664;27;20015;-38
2023/12/03 00:28:23;;;;;;;50.58;28.73;;;;;;;7.31;98.33;98879.00;5133455;27;20026;-39
2023/12/03 00:30:48;;;;;;;55.10;30.48;;;;;;;7.63;97.62;98882.66;5133655;27;20019;-39
2023/12/03 00:33:14;;;;;;;57.30;31.33;;;;;;;7.69;96.09;98896.94;5133635;27;20112;-39
2023/12/03 00:35:39;;;;;;;55.55;31.52;;;;;;;7.55;97.14;98885.50;5133496;27;20019;-38
2023/12/03 00:38:05;;;;;;;53.97;31.73;;;;;;;7.50;95.97;98892.44;5133739;27;20076;-40
2023/12/03 00:40:30;;;;;;;58.20;31.70;;;;;;;7.55;96.68;98890.00;5133677;27;20196;-37
2023/12/03 00:42:55;;;;;;;56.67;32.72;;;;;;;7.36;96.38;98905.66;5133555;27;20015;-39
2023/12/03 00:45:22;;;;;;;57.63;32.22;;;;;;;7.36;96.57;98905.66;5133041;27;20015;-40
2023/12/03 00:47:47;;;;;;;57.90;31.75;;;;;;;7.43;97.37;98903.84;5133430;27;20025;-39
2023/12/03 00:50:13;;;;;;;58.42;32.03;;;;;;;7.48;97.98;98919.09;5133622;27;20477;-37
2023/12/03 00:52:39;;;;;;;57.72;31.50;;;;;;;7.50;97.39;98924.22;5133424;27;20034;-38
2023/12/03 00:55:04;;;;;;;55.05;31.52;;;;;;;7.61;96.68;98932.34;5132729;27;20039;-39
2023/12/03 00:57:32;;;;;;;53.88;30.25;;;;;;;7.48;96.41;98926.25;5132927;27;20055;-39
2023/12/03 00:59:57;;;;;;;54.17;30.70;;;;;;;7.57;96.54;98933.78;5133111;27;20095;-39
2023/12/03 01:02:22;;;;;;;50.85;31.17;;;;;;;7.39;96.09;98942.34;5132993;27;20482;-39
2023/12/03 01:04:48;;;;;;;58.67;31.92;;;;;;;7.38;96.96;98931.94;5132894;27;20013;-38
2023/12/03 01:07:13;;;;;;;59.88;33.10;;;;;;;7.37;96.98;98928.50;5132697;27;20301;-39
2023/12/03 01:09:38;;;;;;;55.70;32.17;;;;;;;7.27;96.76;98909.53;5114080;27;20023;-39
2023/12/03 01:12:04;;;;;;;55.83;30.13;;;;;;;7.26;97.23;98918.50;5132581;27;20148;-39
2023/12/03 01:14:30;;;;;;;55.83;29.80;;;;;;;7.21;97.86;98916.44;5132583;27;20033;-39
2023/12/03 01:16:55;;;;;;;54.65;29.90;;;;;;;7.34;97.30;98913.00;5132484;27;20489;-38
2023/12/03 01:19:21;;;;;;;50.75;29.30;;;;;;;7.38;98.41;98927.47;5132268;27;20019;-39
2023/12/03 01:21:46;;;;;;;49.92;27.90;;;;;;;7.20;98.92;98935.19;5132338;27;20549;-39
2023/12/03 01:24:11;;;;;;;51.70;29.80;;;;;;;7.52;99.41;98933.59;5132419;27;20450;-39
2023/12/03 01:26:37;;;;;;;43.65;26.67;;;;;;;7.91;96.91;98928.47;5132530;27;20020;-38
2023/12/03 01:29:03;;;;;;;47.95;26.98;;;;;;;7.73;95.52;98931.72;5132520;27;20435;-37
2023/12/03 01:31:28;;;;;;;44.38;26.85;;;;;;;7.50;96.91;98918.91;5132617;27;20487;-38
2023/12/03 01:33:54;;;;;;;46.88;25.85;;;;;;;7.48;97.07;98918.31;5132458;27;20057;-36
2023/12/03 01:36:19;;;;;;;42.45;25.10;;;;;;;7.79;96.40;98913.19;5132366;27;20427;-36
2023/12/03 01:38:45;;;;;;;44.00;24.98;;;;;;;7.70;95.64;98916.28;5132126;27;20433;-37
2023/12/03 01:41:10;;;;;;;39.75;24.45;;;;;;;7.49;97.15;98896.94;5132139;27;20396;-39
2023/12/03 01:43:53;;;;;;;42.13;25.75;;;;;;;7.54;97.43;98910.38;5132246;27;20015;-38
2023/12/03 01:46:21;;;;;;;42.38;25.55;;;;;;;7.55;96.95;98917.28;5132030;27;20490;-38
2023/12/03 01:48:48;;;;;;;47.00;25.63;;;;;;;7.66;96.07;98921.16;5132479;27;20015;-37
2023/12/03 01:51:13;;;;;;;41.47;25.27;;;;;;;7.57;96.95;98922.38;5131732;27;20440;-39
2023/12/03 01:53:39;;;;;;;39.70;23.30;;;;;;;7.65;96.93;98932.75;5131988;27;20023;-39
2023/12/03 01:56:05;;;;;;;40.72;24.35;;;;;;;7.71;97.04;98926.66;5125085;27;20040;-38
2023/12/03 01:58:32;;;;;;;43.35;23.00;;;;;;;7.67;96.84;98925.41;5110676;28;20030;-37
2023/12/03 02:00:57;;;;;;;40.15;23.50;;;;;;;7.65;96.53;98935.41;5111591;28;20079;-40
2023/12/03 02:03:23;;;;;;;42.60;24.10;;;;;;;7.51;96.33;98937.25;5110995;28;20110;-39
2023/12/03 02:05:53;;;;;;;40.65;24.92;;;;;;;7.49;97.14;98931.34;5110886;28;20019;-40
2023/12/03 02:08:18;;;;;;;45.60;24.98;;;;;;;7.48;97.07;98931.53;5111473;28;20020;-38
2023/12/03 02:10:44;;;;;;;46.53;25.25;;;;;;;7.66;96.78;98926.47;5111039;28;20153;-39
2023/12/03 02:13:09;;;;;;;40.85;24.27;;;;;;;7.75;96.77;98932.34;5110939;28;20155;-39
2023/12/03 02:15:35;;;;;;;39.63;23.52;;;;;;;7.71;96.46;98928.47;5110642;28;20034;-36
2023/12/03 02:18:00;;;;;;;40.15;22.77;;;;;;;7.56;97.93;98936.66;5110191;28;20020;-38
2023/12/03 02:20:25;;;;;;;38.83;23.88;;;;;;;7.55;97.60;98938.47;5110945;28;20059;-39
2023/12/03 02:23:01;;;;;;;39.53;23.45;;;;;;;7.52;98.77;98933.59;5121610;27;20027;-39
2023/12/03 02:25:26;;;;;;;39.63;23.15;;;;;;;7.78;98.10;98930.09;5130657;27;20014;-38
2023/12/03 02:27:51;;;;;;;38.78;22.75;;;;;;;7.86;97.05;98929.06;5131227;27;20019;-38
2023/12/03 02:30:17;;;;;;;41.05;23.48;;;;;;;8.10;96.28;98924.16;5117826;27;20050;-39
2023/12/03 02:32:42;;;;;;;42.30;25.30;;;;;;;8.18;95.62;98929.22;5131243;27;20023;-38
2023/12/03 02:35:08;;;;;;;40.90;22.15;;;;;;;8.00;93.71;98943.16;5131400;27;20110;-37
2023/12/03 02:37:33;;;;;;;38.08;23.42;;;;;;;7.63;95.96;98946.22;5131133;27;20026;-38
2023/12/03 02:39:58;;;;;;;38.10;22.25;;;;;;;7.56;96.04;98940.09;5131377;27;20030;-38
2023/12/03 02:42:24;;;;;;;40.10;22.95;;;;;;;7.48;96.67;98942.94;5131206;27;20026;-39
2023/12/03 02:44:49;;;;;;;41.65;23.85;;;;;;;7.53;95.90;98951.09;5131706;27;20107;-38
2023/12/03 02:47:14;;;;;;;40.72;23.48;;;;;;;7.34;96.43;98952.69;5112474;28;20053;-38
2023/12/03 02:49:40;;;;;;;39.95;24.08;;;;;;;7.48;95.55;98948.22;5112435;28;20023;-39
2023/12/03 02:52:05;;;;;;;42.17;24.40;;;;;;;7.53;96.36;98960.88;5131082;28;20019;-38
2023/12/03 02:54:30;;;;;;;43.97;24.83;;;;;;;7.62;94.69;98965.78;5122678;28;20801;-39
2023/12/03 02:56:56;;;;;;;39.38;23.67;;;;;;;7.40;96.57;98967.78;5123165;28;20513;-39
2023/12/03 02:59:21;;;;;;;38.13;22.80;;;;;;;7.39;94.69;98966.16;5130921;28;20394;-39
2023/12/03 03:01:46;;;;;;;46.63;23.80;;;;;;;7.35;94.88;98967.59;5131104;28;20034;-37
2023/12/03 03:04:12;;;;;;;38.03;22.75;;;;;;;7.12;96.48;98969.75;5131034;28;20034;-39
2023/12/03 03:06:37;;;;;;;40.03;23.58;;;;;;;7.26;96.87;98960.84;5131424;28;20031;-37
2023/12/03 03:09:03;;;;;;;36.75;22.92;;;;;;;7.15;97.37;98972.00;5131011;27;20030;-39
2023/12/03 03:11:28;;;;;;;34.58;21.05;;;;;;;7.12;97.85;98975.03;5130845;28;20098;-39
2023/12/03 03:13:54;;;;;;;36.15;22.50;;;;;;;7.13;97.48;98974.03;5131156;28;20022;-39
2023/12/03 03:16:25;;;;;;;35.80;22.45;;;;;;;7.30;96.14;98980.59;5130798;28;20084;-36
2023/12/03 03:18:50;;;;;;;39.95;22.85;;;;;;;7.17;97.24;98970.78;5130744;28;20031;-40
2023/12/03 03:21:16;;;;;;;39.63;22.65;;;;;;;7.18;96.20;98969.78;5130940;28;20042;-36
2023/12/03 03:23:41;;;;;;;40.13;22.70;;;;;;;7.16;96.36;98979.75;5130795;28;20027;-39
2023/12/03 03:26:06;;;;;;;40.10;21.77;;;;;;;7.19;96.07;98971.41;5130830;28;20015;-38
2023/12/03 03:28:32;;;;;;;35.00;20.33;;;;;;;7.28;96.93;98981.81;5130809;27;20148;-38
2023/12/03 03:30:58;;;;;;;32.67;18.55;;;;;;;7.13;96.98;98976.69;5134225;27;20488;-39
2023/12/03 03:33:24;;;;;;;37.38;20.13;;;;;;;7.12;96.64;98990.91;5134981;27;20050;-38
2023/12/03 03:35:49;;;;;;;33.15;20.60;;;;;;;7.07;96.26;98988.88;5134494;27;20107;-38
2023/12/03 03:38:14;;;;;;;33.85;19.42;;;;;;;6.94;97.32;98988.84;5132876;27;20390;-37
2023/12/03 03:40:40;;;;;;;36.45;21.45;;;;;;;7.29;97.90;98999.31;5117701;27;20023;-39
2023/12/03 03:43:05;;;;;;;34.75;20.02;;;;;;;7.20;96.30;98982.81;5114220;28;20019;-38
2023/12/03 03:45:30;;;;;;;31.25;19.60;;;;;;;7.32;96.38;98988.34;5113968;28;20027;-40
2023/12/03 03:47:56;;;;;;;33.92;20.08;;;;;;;7.10;96.38;98992.94;5113885;28;20123;-38
2023/12/03 03:50:21;;;;;;;35.22;20.80;;;;;;;7.28;97.00;98997.69;5113849;28;20061;-39
2023/12/03 03:52:46;;;;;;;33.92;20.65;;;;;;;7.17;96.10;98999.09;5113941;28;20111;-40
2023/12/03 03:55:12;;;;;;;37.05;20.60;;;;;;;7.22;96.02;98999.31;5113712;28;20475;-39
2023/12/03 03:57:37;;;;;;;36.53;19.73;;;;;;;7.17;95.28;98986.66;5132314;27;20023;-39
2023/12/03 04:00:05;;;;;;;35.35;20.67;;;;;;;7.32;95.53;98983.03;5133994;27;20101;-36
2023/12/03 04:02:31;;;;;;;35.28;20.27;;;;;;;6.98;95.50;98990.06;5134178;27;20023;-39
2023/12/03 04:04:57;;;;;;;35.60;20.83;;;;;;;6.84;97.12;98981.28;5134214;27;20016;-38
2023/12/03 04:07:23;;;;;;;34.13;19.95;;;;;;;6.95;96.21;99001.88;5134221;27;20019;-40
2023/12/03 04:09:48;;;;;;;36.22;21.15;;;;;;;6.82;96.91;98997.34;5134275;27;20439;-39
2023/12/03 04:12:14;;;;;;;32.00;20.08;;;;;;;6.79;95.54;98973.94;5134107;27;20023;-37
2023/12/03 04:14:40;;;;;;;32.05;20.10;;;;;;;7.05;96.51;99004.94;5133882;27;20034;-39
2023/12/03 04:17:07;;;;;;;34.05;20.63;;;;;;;6.89;95.10;99002.63;5133693;27;20023;-38
2023/12/03 04:19:33;;;;;;;34.30;20.35;;;;;;;6.73;95.84;98990.59;5134065;27;20102;-39
2023/12/03 04:21:58;;;;;;;36.00;21.23;;;;;;;6.71;97.33;98997.91;5133896;27;20110;-38
2023/12/03 04:24:24;;;;;;;35.00;19.88;;;;;;;6.91;97.22;98995.34;5133871;27;20106;-38
2023/12/03 04:26:49;;;;;;;30.02;17.95;;;;;;;6.94;96.12;98996.78;5133840;27;20059;-37
2023/12/03 04:29:14;;;;;;;33.72;18.17;;;;;;;7.26;96.99;99005.03;5133870;27;20019;-39
2023/12/03 04:31:40;;;;;;;32.83;19.65;;;;;;;7.33;96.64;99016.41;5133268;27;20019;-40
2023/12/03 04:34:05;;;;;;;28.10;17.00;;;;;;;7.28;97.32;99006.44;5132481;27;20019;-39
2023/12/03 04:36:31;;;;;;;26.67;16.20;;;;;;;7.76;94.76;99016.09;5133669;27;20033;-40
2023/12/03 04:38:56;;;;;;;27.02;15.57;;;;;;;7.70;94.03;99020.38;5133599;27;20031;-37
2023/12/03 04:41:22;;;;;;;25.55;16.08;;;;;;;7.57;94.60;99030.94;5133109;27;20030;-37
2023/12/03 04:43:48;;;;;;;26.55;16.17;;;;;;;7.56;96.15;99032.78;5133497;27;20072;-39
2023/12/03 04:46:13;;;;;;;27.33;15.65;;;;;;;7.57;95.14;99046.81;5133284;27;20027;-40
2023/12/03 04:48:40;;;;;;;25.02;16.08;;;;;;;7.49;95.64;99039.09;5133140;27;20436;-38
2023/12/03 04:51:06;;;;;;;25.95;16.58;;;;;;;7.53;95.82;99048.25;5133275;27;20023;-38
2023/12/03 04:53:32;;;;;;;29.88;16.52;;;;;;;7.60;95.12;99049.09;5133015;27;20031;-37
2023/12/03 04:55:57;;;;;;;31.85;17.13;;;;;;;7.58;95.34;99049.28;5132991;27;20058;-39
2023/12/03 04:58:23;;;;;;;26.52;17.17;;;;;;;7.64;95.27;99050.31;5132917;27;20027;-40
2023/12/03 05:00:48;;;;;;;23.38;15.73;;;;;;;7.50;95.55;99049.47;5132962;27;20033;-39
2023/12/03 05:03:14;;;;;;;29.05;16.48;;;;;;;7.75;95.52;99056.81;5133427;27;20023;-40
2023/12/03 05:05:39;;;;;;;27.15;15.80;;;;;;;7.56;94.82;99061.09;5132839;27;20478;-40
2023/12/03 05:08:05;;;;;;;23.52;14.20;;;;;;;7.65;94.31;99049.28;5133043;27;20026;-40
2023/12/03 05:10:30;;;;;;;27.70;14.65;;;;;;;7.73;94.25;99056.22;5133168;27;20051;-39
2023/12/03 05:12:56;;;;;;;26.42;14.43;;;;;;;7.66;94.55;99066.00;5133009;27;20023;-39
2023/12/03 05:15:21;;;;;;;24.27;13.98;;;;;;;7.71;93.66;99055.59;5132781;27;20493;-40
2023/12/03 05:17:47;;;;;;;23.92;13.07;;;;;;;7.80;93.35;99067.66;5132649;27;20027;-39
2023/12/03 05:20:12;;;;;;;21.48;11.63;;;;;;;7.64;93.80;99066.19;5132692;27;20106;-38
2023/12/03 05:22:38;;;;;;;18.38;11.13;;;;;;;7.42;93.49;99066.38;5132747;27;20282;-38
2023/12/03 05:25:03;;;;;;;20.17;11.52;;;;;;;7.61;94.05;99074.53;5132915;27;20475;-37
2023/12/03 05:27:29;;;;;;;18.17;11.00;;;;;;;7.65;91.68;99067.81;5132536;27;20183;-38
2023/12/03 05:29:54;;;;;;;19.35;12.27;;;;;;;7.76;92.12;99075.19;5132918;27;20099;-37
2023/12/03 05:32:19;;;;;;;25.02;13.40;;;;;;;7.57;93.28;99068.00;5132833;27;20506;-40
2023/12/03 05:34:45;;;;;;;25.17;13.60;;;;;;;7.50;93.55;99062.72;5132427;27;20094;-38
2023/12/03 05:37:12;;;;;;;21.52;13.52;;;;;;;7.36;94.62;99055.75;5132018;27;20098;-37
2023/12/03 05:39:41;;;;;;;19.58;12.23;;;;;;;7.30;94.26;99052.06;5131712;27;20035;-40
2023/12/03 05:42:06;;;;;;;22.63;13.13;;;;;;;7.08;94.98;99045.25;5132327;27;20060;-40
2023/12/03 05:44:32;;;;;;;22.25;13.10;;;;;;;7.38;94.89;99043.94;5119678;27;20027;-39
2023/12/03 05:46:58;;;;;;;21.85;13.65;;;;;;;7.51;92.98;99050.28;5127195;27;20050;-39
2023/12/03 05:49:23;;;;;;;24.83;15.98;;;;;;;7.54;93.23;99056.00;5132083;27;20023;-39
2023/12/03 05:51:49;;;;;;;29.48;16.67;;;;;;;7.63;92.53;99054.81;5131936;27;20031;-40
2023/12/03 05:54:15;;;;;;;31.35;18.58;;;;;;;7.62;92.79;99053.16;5130513;27;20071;-37
2023/12/03 05:56:40;;;;;;;30.48;18.00;;;;;;;7.64;92.47;99059.06;5131988;27;20359;-39
2023/12/03 05:59:06;;;;;;;28.17;17.50;;;;;;;7.52;90.78;99060.69;5130200;27;20035;-36
2023/12/03 06:01:31;;;;;;;29.67;17.63;;;;;;;7.02;93.37;99049.50;5131880;27;20038;-37
2023/12/03 06:03:57;;;;;;;33.35;19.10;;;;;;;7.19;94.68;99049.97;5132508;27;20038;-38
2023/12/03 06:06:22;;;;;;;33.22;19.05;;;;;;;7.58;99.72;99064.38;5122708;27;20518;-40
2023/12/03 06:08:48;;;;;;;28.70;17.35;;;;;;;7.78;97.20;99081.09;5129769;27;20022;-38
2023/12/03 06:11:14;;;;;;;31.58;18.85;;;;;;;8.61;98.80;99074.59;5131249;27;20371;-40
2023/12/03 06:13:39;;;;;;;30.60;18.15;;;;;;;10.50;100.00;99083.00;5131622;27;20019;-40
2023/12/03 06:16:05;;;;;;;27.08;15.50;;;;;;;11.42;92.18;99068.84;5131176;27;20027;-37
2023/12/03 06:18:31;;;;;;;23.63;13.98;;;;;;;12.83;88.59;99078.97;5131156;27;20110;-40
2023/12/03 06:20:59;;;;;;;24.13;14.63;;;;;;;13.10;80.06;99062.44;5131154;27;20023;-40
2023/12/03 06:23:24;;;;;;;22.15;15.05;;;;;;;13.57;74.58;99088.19;5130952;27;20114;-40
2023/12/03 06:25:50;;;;;;;25.85;15.68;;;;;;;13.41;71.30;99079.09;5130936;27;20119;-38
2023/12/03 06:28:15;;;;;;;25.08;16.88;;;;;;;13.11;68.95;99080.06;5131064;27;20048;-39
2023/12/03 06:30:40;;;;;;;25.85;16.50;;;;;;;12.76;69.42;99082.81;5131137;27;20038;-40
2023/12/03 06:33:06;;;;;;;23.08;15.45;;;;;;;12.55;69.40;99093.03;5130794;27;20027;-41
2023/12/03 06:35:31;;;;;;;28.35;16.33;;;;;;;11.95;70.95;99085.97;5130788;27;20512;-37
2023/12/03 06:37:57;;;;;;;25.10;17.20;;;;;;;11.84;71.25;99086.72;5128681;27;20461;-39
2023/12/03 06:40:22;;;;;;;28.50;17.40;;;;;;;11.76;71.78;99087.88;5129258;27;20038;-26
2023/12/03 06:42:48;;;;;;;24.58;16.10;;;;;;;11.69;71.42;99093.31;5130773;27;20129;-27
2023/12/03 06:45:13;;;;;;;22.75;15.00;;;;;;;11.43;72.65;99094.47;5130955;27;20016;-26
2023/12/03 06:47:39;;;;;;;23.33;14.50;;;;;;;11.38;72.97;99098.84;5131057;27;20422;-26
2023/12/03 06:50:05;;;;;;;23.85;14.43;;;;;;;10.22;78.13;99125.13;5130810;27;20415;-27
2023/12/03 06:52:30;;;;;;;25.77;15.20;;;;;;;9.17;83.88;99129.75;5130979;28;20027;-26
2023/12/03 06:54:55;;;;;;;24.95;14.98;;;;;;;9.38;84.71;99122.56;5129341;28;20047;-27
2023/12/03 06:57:21;;;;;;;26.80;15.45;;;;;;;9.21;85.45;99114.22;5130909;28;20360;-26
2023/12/03 06:59:46;;;;;;;25.58;15.82;;;;;;;8.78;87.96;99107.63;5130744;28;20023;-27
2023/12/03 07:02:11;;;;;;;27.33;15.75;;;;;;;8.84;87.91;99105.19;5130809;28;20027;-27
2023/12/03 07:04:37;;;;;;;25.52;15.77;;;;;;;8.89;88.61;99116.78;5133654;27;20046;-25
2023/12/03 07:07:04;;;;;;;27.27;15.27;;;;;;;8.73;89.14;99127.84;5135181;27;20470;-27
2023/12/03 07:09:29;;;;;;;20.83;13.93;;;;;;;8.51;90.53;99128.06;5135072;27;20019;-27
2023/12/03 07:11:54;;;;;;;22.95;14.43;;;;;;;8.41;90.91;99124.97;5134635;27;20563;-26
2023/12/03 07:14:20;;;;;;;23.73;14.30;;;;;;;8.48;91.27;99123.16;5133760;27;20037;-27
2023/12/03 07:16:46;;;;;;;21.55;13.57;;;;;;;8.44;91.31;99114.00;5133630;27;20026;-27
2023/12/03 07:19:11;;;;;;;23.95;13.10;;;;;;;8.86;89.10;99130.47;5134476;27;20023;-27
2023/12/03 07:21:36;;;;;;;18.92;11.43;;;;;;;8.57;89.91;99118.47;5134341;27;20023;-27
2023/12/03 07:24:02;;;;;;;19.38;11.27;;;;;;;8.73;89.24;99131.28;5133406;27;20023;-26
2023/12/03 07:26:27;;;;;;;22.00;11.93;;;;;;;8.83;89.25;99130.88;5133394;27;20023;-26
2023/12/03 07:28:53;;;;;;;18.23;10.95;;;;;;;8.70;90.09;99137.03;5134049;27;20598;-26
2023/12/03 07:31:18;;;;;;;20.35;11.80;;;;;;;8.86;89.15;99133.13;5134229;27;20076;-27
2023/12/03 07:33:44;;;;;;;21.45;12.07;;;;;;;8.98;88.71;99134.09;5134384;27;20498;-27
2023/12/03 07:36:10;;;;;;;19.95;11.13;;;;;;;9.02;88.57;99145.13;5134536;27;20383;-28
2023/12/03 07:38:35;;;;;;;22.17;11.20;;;;;;;9.29;87.28;99148.53;5134199;27;20043;-27
2023/12/03 07:41:01;;;;;;;17.70;10.68;;;;;;;9.41;87.10;99153.19;5119610;27;20055;-26
2023/12/03 07:43:26;;;;;;;21.45;10.75;;;;;;;9.62;86.59;99166.19;5113471;28;20054;-26
2023/12/03 07:45:52;;;;;;;21.80;10.98;;;;;;;9.47;87.01;99155.81;5124582;27;20031;-27
2023/12/03 07:48:17;;;;;;;20.05;10.57;;;;;;;9.26;87.29;99151.59;5134553;27;20106;-27
2023/12/03 07:50:43;;;;;;;28.73;12.48;;;;;;;9.21;87.74;99151.41;5136774;27;20023;-26
2023/12/03 07:53:08;;;;;;;25.52;12.05;;;;;;;9.17;88.06;99147.53;5146892;27;20022;-27
2023/12/03 07:55:34;;;;;;;18.05;9.30;;;;;;;9.39;87.02;99170.16;5147838;27;20083;-27
2023/12/03 07:57:59;;;;;;;20.10;9.85;;;;;;;9.43;87.17;99180.38;5150232;27;20783;-26
2023/12/03 08:00:25;;;;;;;17.63;10.02;;;;;;;9.77;91.80;99157.94;5137318;27;20418;-27
2023/12/03 08:02:50;;;;;;;16.45;9.93;;;;;;;10.12;89.00;99181.44;5134116;27;20054;-26
2023/12/03 08:05:16;;;;;;;17.13;9.45;;;;;;;10.29;87.63;99179.91;5134464;27;20102;-27
2023/12/03 08:07:42;;;;;;;19.73;10.07;;;;;;;11.34;81.24;99178.38;5134331;27;20077;-28
2023/12/03 08:10:07;;;;;;;15.98;8.85;;;;;;;10.94;78.04;99176.94;5098538;27;20490;-26
2023/12/03 08:12:33;;;;;;;16.45;8.90;;;;;;;10.75;80.00;99175.28;5134491;27;20023;-25
2023/12/03 08:14:58;;;;;;;19.98;10.27;;;;;;;10.32;80.50;99182.19;5133578;27;20036;-27
2023/12/03 08:17:23;;;;;;;19.33;9.63;;;;;;;10.36;80.58;99187.88;5134345;27;20369;-26
2023/12/03 08:19:49;;;;;;;19.55;9.48;;;;;;;10.41;80.31;99184.56;5134413;27;20036;-27
2023/12/03 08:22:14;;;;;;;18.83;9.88;;;;;;;10.05;82.87;99188.66;5134704;27;20016;-28
2023/12/03 08:24:39;;;;;;;18.50;10.75;;;;;;;9.87;82.51;99174.22;5134293;27;20602;-26
2023/12/03 08:27:05;;;;;;;17.40;10.25;;;;;;;9.75;83.83;99186.56;5134171;27;20039;-28
2023/12/03 08:29:31;;;;;;;15.65;10.07;;;;;;;9.98;83.71;99178.88;5133907;27;20071;-27
2023/12/03 08:31:56;;;;;;;16.75;9.82;;;;;;;10.07;83.13;99179.44;5133640;27;20022;-26
2023/12/03 08:34:22;;;;;;;18.75;10.13;;;;;;;10.44;82.49;99179.63;5133657;27;20025;-27
2023/12/03 08:36:47;;;;;;;15.90;9.70;;;;;;;10.43;81.93;99193.94;5133724;27;20016;-27
2023/12/03 08:39:14;;;;;;;17.35;10.45;;;;;;;10.69;81.48;99189.47;5133737;27;20100;-26
2023/12/03 08:41:39;;;;;;;18.70;10.25;;;;;;;10.80;80.21;99185.28;5134275;27;20116;-27
2023/12/03 08:44:05;;;;;;;17.98;10.27;;;;;;;10.79;79.76;99191.63;5133952;27;20501;-27
2023/12/03 08:46:30;;;;;;;19.42;10.93;;;;;;;10.72;81.28;99194.38;5133839;27;20027;-27
2023/12/03 08:48:56;;;;;;;17.27;10.57;;;;;;;10.93;80.17;99185.16;5133843;27;20019;-27
2023/12/03 08:51:21;;;;;;;23.60;12.93;;;;;;;10.99;79.03;99186.94;5133594;27;20019;-28
2023/12/03 08:53:47;;;;;;;21.73;11.20;;;;;;;11.07;79.50;99172.53;5133754;27;20026;-28
2023/12/03 08:56:13;;;;;;;16.85;10.18;;;;;;;11.14;78.75;99183.94;5133064;27;20112;-27
2023/12/03 08:58:41;;;;;;;17.23;9.80;;;;;;;11.61;77.84;99188.72;5133509;27;20120;-27
2023/12/03 09:01:07;;;;;;;16.47;9.10;;;;;;;11.44;77.21;99173.38;5133377;27;20456;-26
2023/12/03 09:03:34;;;;;;;20.30;9.85;;;;;;;11.06;79.25;99182.38;5133331;27;20195;-28
2023/12/03 09:06:00;;;;;;;17.15;9.48;;;;;;;11.11;79.68;99185.19;5133592;27;20015;-26
2023/12/03 09:08:26;;;;;;;18.63;9.95;;;;;;;11.47;79.17;99180.91;5133411;27;20025;-28
2023/12/03 09:10:51;;;;;;;15.88;9.27;;;;;;;11.65;77.09;99193.41;5133254;27;20090;-27
2023/12/03 09:13:16;;;;;;;17.83;9.23;;;;;;;11.60;77.84;99187.94;5133345;27;20098;-27
2023/12/03 09:15:42;;;;;;;17.80;10.00;;;;;;;11.64;78.22;99180.31;5133114;27;20049;-28
2023/12/03 09:18:07;;;;;;;19.92;9.57;;;;;;;11.67;77.41;99183.34;5132987;27;20469;-28
2023/12/03 09:20:32;;;;;;;20.27;9.60;;;;;;;12.17;76.00;99186.81;5132456;27;20374;-28
2023/12/03 09:22:58;;;;;;;16.90;8.80;;;;;;;12.31;74.94;99173.03;5131558;27;20019;-27
2023/12/03 09:25:23;;;;;;;19.58;8.70;;;;;;;12.06;75.79;99177.72;5128802;27;20030;-27
2023/12/03 09:27:49;;;;;;;17.55;9.05;;;;;;;11.99;76.97;99179.66;5133948;27;20015;-27
2023/12/03 09:30:14;;;;;;;17.02;8.45;;;;;;;12.67;74.26;99199.81;5132159;27;20023;-28
2023/12/03 09:32:40;;;;;;;19.95;9.02;;;;;;;12.43;75.40;99201.59;5132139;27;20023;-27
2023/12/03 09:35:06;;;;;;;16.63;9.15;;;;;;;12.48;75.21;99212.41;5131865;27;20016;-28
2023/12/03 09:37:31;;;;;;;16.65;8.35;;;;;;;12.68;73.83;99217.47;5132630;27;20102;-27
2023/12/03 09:39:57;;;;;;;18.00;9.13;;;;;;;12.82;72.92;99210.84;5132683;27;20023;-28
2023/12/03 09:42:26;;;;;;;18.70;10.18;;;;;;;12.50;74.56;99205.78;5132668;27;20098;-27
2023/12/03 09:45:04;;;;;;;18.35;10.55;;;;;;;12.42;75.15;99214.13;5132463;27;20047;-27
2023/12/03 09:47:34;;;;;;;22.50;10.98;;;;;;;13.03;73.97;99205.97;5132221;27;20027;-27
2023/12/03 09:50:00;;;;;;;22.20;11.35;;;;;;;13.17;73.15;99201.22;5131943;27;20023;-27
2023/12/03 09:52:28;;;;;;;22.92;10.85;;;;;;;13.03;77.50;99209.47;5131707;27;20027;-26
2023/12/03 09:55:00;;;;;;;17.50;9.95;;;;;;;13.82;83.06;99205.53;5131631;27;20039;-27
2023/12/03 09:57:30;;;;;;;18.55;10.30;;;;;;;13.83;75.41;99196.47;5131929;27;20034;-27
2023/12/03 10:00:00;;;;;;;19.58;9.88;;;;;;;14.02;71.78;99208.59;5132068;27;20071;-28
2023/12/03 10:02:28;;;;;;;15.57;8.85;;;;;;;13.69;72.17;99210.09;5131784;27;20023;-27
2023/12/03 10:04:55;;;;;;;17.13;9.48;;;;;;;14.19;77.38;99208.63;5131719;27;20030;-27
2023/12/03 10:07:23;;;;;;;18.35;10.05;;;;;;;14.70;70.92;99218.63;5132090;27;20030;-27
2023/12/03 10:09:49;;;;;;;15.80;9.13;;;;;;;14.94;71.37;99204.00;5132273;27;20098;-27
2023/12/03 10:12:19;;;;;;;23.13;9.90;;;;;;;14.78;68.68;99205.66;5132677;27;20023;-27
2023/12/03 10:14:45;;;;;;;19.77;8.88;;;;;;;14.89;72.14;99213.81;5132471;27;20102;-28
2023/12/03 10:17:18;;;;;;;21.63;9.05;;;;;;;15.72;67.10;99205.84;5132294;27;20035;-28
2023/12/03 10:19:43;;;;;;;22.20;8.73;;;;;;;15.87;62.87;99211.41;5132790;27;20020;-28
2023/12/03 10:22:09;;;;;;;17.00;9.23;;;;;;;15.17;65.92;99203.03;5131938;27;20019;-28
2023/12/03 10:24:49;;;;;;;20.73;9.50;;;;;;;14.43;68.78;99195.13;5131408;27;20157;-26
2023/12/03 10:27:14;;;;;;;17.52;8.38;;;;;;;14.62;69.67;99201.91;5132518;27;20038;-27
2023/12/03 10:29:40;;;;;;;16.23;9.52;;;;;;;14.51;68.79;99200.09;5132685;27;20031;-28
2023/12/03 10:32:07;;;;;;;21.23;10.50;;;;;;;14.12;70.96;99201.81;5131743;27;20031;-29
2023/12/03 10:34:32;;;;;;;23.38;13.23;;;;;;;13.63;72.78;99197.69;5131314;27;20053;-27
2023/12/03 10:37:00;;;;;;;28.67;13.43;;;;;;;13.58;74.04;99202.13;5130410;27;20030;-27
2023/12/03 10:39:26;;;;;;;25.90;14.05;;;;;;;13.98;71.45;99188.72;5131194;27;20027;-29
2023/12/03 10:41:51;;;;;;;25.55;14.40;;;;;;;13.73;72.85;99183.72;5131338;27;20023;-28
2023/12/03 10:44:24;;;;;;;29.73;14.75;;;;;;;13.44;74.00;99182.84;5131602;27;20403;-27
2023/12/03 10:46:52;;;;;;;21.63;14.45;;;;;;;13.30;75.58;99195.66;5131410;27;20098;-27
2023/12/03 10:49:20;;;;;;;28.48;14.50;;;;;;;13.24;76.04;99197.38;5131504;27;20072;-30
2023/12/03 10:51:47;;;;;;;31.25;13.32;;;;;;;13.45;75.12;99197.84;5131770;27;20019;-29
2023/12/03 10:54:13;;;;;;;23.75;12.45;;;;;;;13.28;75.55;99200.38;5131741;28;20165;-29
2023/12/03 10:56:40;;;;;;;23.77;12.55;;;;;;;13.10;76.68;99196.81;5131388;28;20530;-28
2023/12/03 10:59:10;;;;;;;22.63;12.18;;;;;;;13.02;77.57;99201.66;5131595;28;20027;-29
2023/12/03 11:01:40;;;;;;;23.38;12.18;;;;;;;13.63;74.91;99188.84;5131692;28;20498;-31
2023/12/03 11:04:37;;;;;;;20.20;12.48;;;;;;;13.41;75.29;99192.16;5131792;28;20152;-28
2023/12/03 11:07:07;;;;;;;23.95;12.30;;;;;;;13.42;74.64;99190.28;5131426;28;20028;-29
2023/12/03 11:09:33;;;;;;;;;;;;;;;13.36;75.33;99188.56;5132117;27;20029;-29
2023/12/03 11:11:59;;;;;;;24.58;11.88;;;;;;;13.83;73.75;99183.09;5131456;28;19907;-29
2023/12/03 11:14:25;;;;;;;21.10;11.18;;;;;;;14.16;71.16;99176.19;5131516;28;20049;-30
2023/12/03 11:17:06;;;;;;;23.33;11.05;;;;;;;13.77;72.62;99174.16;5131428;28;20398;-28
2023/12/03 11:19:33;;;;;;;;;;;;;;;13.39;74.93;99186.22;5131789;28;20023;-28